createdAt,value
2019-04-26T00:00:10.890Z,1.23
2019-04-26T00:01:53.684Z,1.53
2019-04-26T00:03:37.229Z,1.37
2019-04-26T00:05:12.335Z,2.80
2019-04-26T00:06:48.039Z,0.93
2019-04-26T00:08:22.672Z,1.87
2019-04-26T00:09:59.287Z,1.53
2019-04-26T00:11:52.999Z,1.30
2019-04-26T00:13:45.709Z,4.07
2019-04-26T00:15:57.632Z,1.60
2019-04-26T00:17:39.419Z,2.43
2019-04-26T00:19:14.447Z,1.37
2019-04-26T00:20:49.622Z,2.13
2019-04-26T00:22:24.274Z,0.97
2019-04-26T00:23:59.006Z,1.73
2019-04-26T00:25:33.994Z,1.03
2019-04-26T00:27:08.976Z,1.20
2019-04-26T00:28:43.692Z,2.30
2019-04-26T00:30:19.133Z,2.03
2019-04-26T00:31:54.253Z,1.20
2019-04-26T00:33:28.882Z,1.50
2019-04-26T00:35:03.664Z,1.00
2019-04-26T00:36:38.568Z,2.50
2019-04-26T00:38:14.169Z,1.67
2019-04-26T00:39:48.939Z,2.93
2019-04-26T00:41:23.867Z,2.03
2019-04-26T00:42:59.238Z,1.57
2019-04-26T00:44:34.448Z,2.10
2019-04-26T00:46:09.855Z,1.60
2019-04-26T00:47:45.013Z,1.77
2019-04-26T00:49:21.209Z,2.47
2019-04-26T00:50:56.531Z,1.27
2019-04-26T00:52:32.175Z,1.90
2019-04-26T00:54:06.816Z,0.93
2019-04-26T00:55:41.929Z,3.10
2019-04-26T00:57:16.743Z,1.93
2019-04-26T00:58:51.875Z,1.00
2019-04-26T01:00:26.612Z,3.03
2019-04-26T01:02:08.390Z,3.73
2019-04-26T01:03:43.656Z,1.10
2019-04-26T01:05:18.922Z,1.40
2019-04-26T01:06:55.452Z,1.40
2019-04-26T01:08:30.093Z,1.83
2019-04-26T01:10:05.156Z,1.63
2019-04-26T01:11:39.803Z,1.30
2019-04-26T01:13:15.338Z,2.00
2019-04-26T01:14:50.945Z,2.13
2019-04-26T01:16:26.412Z,1.17
2019-04-26T01:18:01.201Z,1.10
2019-04-26T01:19:38.052Z,1.53
2019-04-26T01:21:14.125Z,2.13
2019-04-26T01:22:50.883Z,2.50
2019-04-26T01:24:27.255Z,4.37
2019-04-26T01:26:12.125Z,2.83
2019-04-26T01:27:46.831Z,1.80
2019-04-26T01:29:21.848Z,2.30
2019-04-26T01:30:57.039Z,1.37
2019-04-26T01:32:32.150Z,1.93
2019-04-26T01:34:06.893Z,3.50
2019-04-26T01:35:41.629Z,2.30
2019-04-26T01:37:16.395Z,1.73
2019-04-26T01:38:52.521Z,1.30
2019-04-26T01:40:28.834Z,1.50
2019-04-26T01:42:32.770Z,1.60
2019-04-26T01:44:12.097Z,1.33
2019-04-26T01:45:55.948Z,4.60
2019-04-26T01:47:30.670Z,2.20
2019-04-26T01:49:07.874Z,1.10
2019-04-26T01:50:42.606Z,4.23
2019-04-26T01:52:17.346Z,3.53
2019-04-26T01:53:52.862Z,3.13
2019-04-26T01:55:29.451Z,2.40
2019-04-26T01:57:05.651Z,1.30
2019-04-26T01:58:40.386Z,2.00
2019-04-26T02:00:25.583Z,1.83
2019-04-26T02:02:11.962Z,2.90
2019-04-26T02:03:46.752Z,2.03
2019-04-26T02:05:24.055Z,2.90
2019-04-26T02:06:59.808Z,1.40
2019-04-26T02:08:34.511Z,2.23
2019-04-26T02:10:13.848Z,2.60
2019-04-26T02:11:48.549Z,1.50
2019-04-26T02:13:25.068Z,2.57
2019-04-26T02:15:01.163Z,2.57
2019-04-26T02:16:36.389Z,1.60
2019-04-26T02:18:11.108Z,2.30
2019-04-26T02:19:45.930Z,1.40
2019-04-26T02:21:25.934Z,1.83
2019-04-26T02:23:07.674Z,2.23
2019-04-26T02:24:44.734Z,2.83
2019-04-26T02:26:35.949Z,1.20
2019-04-26T02:28:10.686Z,1.63
2019-04-26T02:29:45.347Z,1.23
2019-04-26T02:31:20.378Z,1.83
2019-04-26T02:32:55.095Z,2.47
2019-04-26T02:34:33.158Z,1.77
2019-04-26T02:36:07.673Z,3.90
2019-04-26T02:37:42.594Z,3.17
2019-04-26T02:39:22.826Z,2.50
2019-04-26T02:40:57.578Z,3.33
2019-04-26T02:42:39.283Z,1.20
2019-04-26T02:44:14.431Z,2.93
2019-04-26T02:46:15.718Z,1.40
2019-04-26T02:47:57.612Z,2.97
2019-04-26T02:49:38.572Z,2.93
2019-04-26T02:51:18.340Z,2.07
2019-04-26T02:53:44.420Z,2.70
2019-04-26T02:55:56.046Z,2.97
2019-04-26T02:57:44.254Z,2.93
2019-04-26T02:59:30.182Z,1.87
2019-04-26T03:01:05.867Z,1.40
2019-04-26T03:02:40.786Z,1.70
2019-04-26T03:04:15.531Z,2.60
2019-04-26T03:05:50.946Z,2.00
2019-04-26T03:07:48.413Z,1.60
2019-04-26T03:09:23.357Z,2.87
2019-04-26T03:11:17.430Z,1.70
2019-04-26T03:12:54.169Z,1.70
2019-04-26T03:15:12.640Z,1.70
2019-04-26T03:16:54.880Z,2.10
2019-04-26T03:18:53.974Z,4.57
2019-04-26T03:20:36.388Z,3.00
2019-04-26T03:22:21.503Z,1.63
2019-04-26T03:24:17.301Z,2.60
2019-04-26T03:26:31.601Z,3.47
2019-04-26T03:28:50.086Z,2.43
2019-04-26T03:30:53.542Z,2.00
2019-04-26T03:32:53.850Z,2.27
2019-04-26T03:34:46.508Z,1.50
2019-04-26T03:37:28.115Z,2.13
2019-04-26T03:39:15.382Z,1.90
2019-04-26T03:41:06.850Z,2.40
2019-04-26T03:42:54.124Z,1.70
2019-04-26T03:44:38.374Z,1.50
2019-04-26T03:46:39.021Z,2.40
2019-04-26T03:48:45.274Z,1.93
2019-04-26T03:50:27.692Z,1.87
2019-04-26T03:52:32.502Z,4.00
2019-04-26T03:54:12.682Z,1.83
2019-04-26T03:56:52.353Z,2.73
2019-04-26T03:58:58.506Z,2.30
2019-04-26T04:00:51.221Z,4.03
2019-04-26T04:02:52.529Z,2.37
2019-04-26T04:04:41.145Z,3.07
2019-04-26T04:06:21.430Z,1.57
2019-04-26T04:07:57.059Z,3.13
2019-04-26T04:09:32.658Z,2.33
2019-04-26T04:11:10.106Z,2.47
2019-04-26T04:12:55.151Z,1.50
2019-04-26T04:14:41.934Z,4.70
2019-04-26T04:16:26.484Z,2.83
2019-04-26T04:18:05.896Z,2.83
2019-04-26T04:20:01.901Z,2.00
2019-04-26T04:21:53.449Z,3.07
2019-04-26T04:23:56.781Z,1.77
2019-04-26T04:25:35.287Z,2.33
2019-04-26T04:27:21.148Z,3.27
2019-04-26T04:29:20.357Z,2.37
2019-04-26T04:31:15.869Z,1.80
2019-04-26T04:33:06.185Z,3.13
2019-04-26T04:34:46.045Z,1.80
2019-04-26T04:36:28.777Z,1.70
2019-04-26T04:38:11.174Z,2.57
2019-04-26T04:40:10.787Z,2.20
2019-04-26T04:41:59.002Z,1.70
2019-04-26T04:43:41.843Z,2.67
2019-04-26T04:46:02.125Z,2.37
2019-04-26T04:47:52.513Z,3.23
2019-04-26T04:49:53.639Z,2.40
2019-04-26T04:51:56.279Z,2.30
2019-04-26T04:53:58.822Z,2.83
2019-04-26T04:55:44.682Z,3.10
2019-04-26T04:58:09.692Z,1.90
2019-04-26T04:59:50.770Z,3.83
2019-04-26T05:01:57.140Z,5.20
2019-04-26T05:03:45.078Z,1.70
2019-04-26T05:06:06.612Z,1.73
2019-04-26T05:08:09.394Z,2.83
2019-04-26T05:10:05.625Z,1.73
2019-04-26T05:11:53.938Z,1.70
2019-04-26T05:13:40.318Z,3.13
2019-04-26T05:15:46.881Z,1.87
2019-04-26T05:17:36.777Z,1.63
2019-04-26T05:19:36.820Z,1.40
2019-04-26T05:21:40.871Z,1.80
2019-04-26T05:23:37.030Z,2.87
2019-04-26T05:26:33.847Z,2.50
2019-04-26T05:28:20.444Z,3.00
2019-04-26T05:31:03.286Z,3.33
2019-04-26T05:32:58.202Z,2.53
2019-04-26T05:34:43.511Z,2.40
2019-04-26T05:36:34.608Z,2.83
2019-04-26T05:38:24.496Z,2.63
2019-04-26T05:40:16.221Z,3.27
2019-04-26T05:42:30.690Z,3.20
2019-04-26T05:44:32.680Z,5.47
2019-04-26T05:47:20.968Z,3.50
2019-04-26T05:49:29.422Z,4.00
2019-04-26T05:51:36.340Z,3.73
2019-04-26T05:53:57.173Z,4.33
2019-04-26T05:56:24.859Z,3.40
2019-04-26T05:58:20.835Z,3.50
2019-04-26T06:00:29.187Z,3.43
2019-04-26T06:02:44.745Z,3.90
2019-04-26T06:04:42.924Z,3.47
2019-04-26T06:06:39.223Z,4.00
2019-04-26T06:09:04.260Z,5.37
2019-04-26T06:10:56.492Z,4.23
2019-04-26T06:13:32.600Z,3.37
2019-04-26T06:15:44.553Z,3.70
2019-04-26T06:17:57.866Z,3.20
2019-04-26T06:19:55.231Z,4.00
2019-04-26T06:21:55.879Z,3.87
2019-04-26T06:23:42.110Z,4.23
2019-04-26T06:25:40.588Z,7.47
2019-04-26T06:27:37.554Z,4.10
2019-04-26T06:29:26.829Z,4.43
2019-04-26T06:31:14.069Z,4.73
2019-04-26T06:33:29.195Z,5.43
2019-04-26T06:35:20.422Z,5.47
2019-04-26T06:37:19.342Z,4.50
2019-04-26T06:39:38.556Z,3.97
2019-04-26T06:42:02.878Z,4.57
2019-04-26T06:43:44.378Z,3.70
2019-04-26T06:45:50.152Z,4.23
2019-04-26T06:47:35.340Z,4.43
2019-04-26T06:50:01.399Z,4.37
2019-04-26T06:51:41.988Z,4.97
2019-04-26T06:53:42.261Z,5.37
2019-04-26T06:55:29.203Z,4.53
2019-04-26T06:57:55.886Z,4.17
2019-04-26T06:59:45.992Z,4.03
2019-04-26T07:01:56.562Z,4.30
2019-04-26T07:03:53.113Z,4.23
2019-04-26T07:05:29.063Z,6.13
2019-04-26T07:07:25.314Z,4.50
2019-04-26T07:09:11.691Z,4.87
2019-04-26T07:11:29.003Z,5.30
2019-04-26T07:13:32.008Z,4.50
2019-04-26T07:15:32.529Z,4.83
2019-04-26T07:17:15.565Z,4.93
2019-04-26T07:19:48.274Z,4.27
2019-04-26T07:22:35.789Z,4.03
2019-04-26T07:24:45.764Z,4.47
2019-04-26T07:27:01.434Z,5.00
2019-04-26T07:29:06.770Z,4.67
2019-04-26T07:30:59.683Z,4.23
2019-04-26T07:33:06.278Z,4.57
2019-04-26T07:35:04.602Z,4.30
2019-04-26T07:37:45.962Z,3.93
2019-04-26T07:39:43.112Z,4.60
2019-04-26T07:41:51.362Z,4.60
2019-04-26T07:43:43.401Z,4.07
2019-04-26T07:45:48.290Z,4.30
2019-04-26T07:48:17.902Z,4.47
2019-04-26T07:50:39.911Z,4.57
2019-04-26T07:52:48.882Z,4.30
2019-04-26T07:55:10.925Z,5.03
2019-04-26T07:57:39.058Z,4.17
2019-04-26T08:00:13.013Z,4.33
2019-04-26T08:02:33.291Z,4.93
2019-04-26T08:04:15.528Z,4.53
2019-04-26T08:05:58.965Z,4.40
2019-04-26T08:07:37.586Z,4.20
2019-04-26T08:09:25.997Z,5.00
2019-04-26T08:11:11.036Z,5.57
2019-04-26T08:12:50.554Z,5.33
2019-04-26T08:14:39.375Z,5.07
2019-04-26T08:16:33.169Z,5.20
2019-04-26T08:18:15.168Z,4.10
2019-04-26T08:20:05.537Z,4.80
2019-04-26T08:21:47.630Z,5.73
2019-04-26T08:23:38.522Z,4.10
2019-04-26T08:25:01.224Z,4.57
2019-04-26T08:26:37.374Z,5.50
2019-04-26T08:28:15.155Z,5.37
2019-04-26T08:29:57.762Z,5.67
2019-04-26T08:31:34.160Z,7.23
2019-04-26T08:33:13.067Z,6.47
2019-04-26T08:34:51.983Z,7.20
2019-04-26T08:36:28.734Z,6.63
2019-04-26T08:38:13.746Z,7.00
2019-04-26T08:39:45.485Z,7.40
2019-04-26T08:41:22.506Z,7.27
2019-04-26T08:43:22.681Z,7.10
2019-04-26T08:45:13.555Z,6.60
2019-04-26T08:47:23.747Z,6.57
2019-04-26T08:49:06.685Z,7.10
2019-04-26T08:50:47.027Z,6.93
2019-04-26T08:52:23.867Z,6.67
2019-04-26T08:53:58.874Z,6.53
2019-04-26T08:55:35.226Z,6.70
2019-04-26T08:57:11.119Z,6.43
2019-04-26T08:58:48.355Z,5.43
2019-04-26T09:00:39.136Z,6.10
2019-04-26T09:02:39.724Z,6.47
2019-04-26T09:04:20.196Z,6.30
2019-04-26T09:06:07.925Z,6.70
2019-04-26T09:07:45.922Z,5.80
2019-04-26T09:09:24.395Z,5.43
2019-04-26T09:11:01.023Z,6.47
2019-04-26T09:12:36.943Z,5.70
2019-04-26T09:14:11.872Z,6.57
2019-04-26T09:16:16.599Z,6.00
2019-04-26T09:17:52.699Z,7.03
2019-04-26T09:19:30.418Z,5.90
2019-04-26T09:21:03.854Z,6.50
2019-04-26T09:22:46.431Z,6.00
2019-04-26T09:24:38.352Z,5.73
2019-04-26T09:26:15.916Z,5.23
2019-04-26T09:27:53.839Z,6.63
2019-04-26T09:29:50.557Z,6.50
2019-04-26T09:31:31.129Z,5.67
2019-04-26T09:33:23.125Z,6.07
2019-04-26T09:34:57.861Z,5.03
2019-04-26T09:36:32.577Z,5.10
2019-04-26T09:38:07.290Z,5.10
2019-04-26T09:39:43.434Z,5.33
2019-04-26T09:41:18.669Z,5.03
2019-04-26T09:43:02.739Z,4.80
2019-04-26T09:44:43.099Z,5.43
2019-04-26T09:46:36.724Z,5.43
2019-04-26T09:48:19.451Z,4.97
2019-04-26T09:50:17.194Z,5.93
2019-04-26T09:51:52.086Z,5.80
2019-04-26T09:53:26.726Z,5.20
2019-04-26T09:55:01.363Z,6.17
2019-04-26T09:56:36.448Z,5.17
2019-04-26T09:58:11.365Z,5.93
2019-04-26T09:59:46.085Z,5.60
2019-04-26T10:01:24.158Z,5.83
2019-04-26T10:02:58.921Z,6.47
2019-04-26T10:04:33.562Z,6.50
2019-04-26T10:06:08.406Z,7.07
2019-04-26T10:07:44.139Z,7.83
2019-04-26T10:09:21.201Z,6.90
2019-04-26T10:10:57.157Z,6.93
2019-04-26T10:12:38.060Z,7.47
2019-04-26T10:14:17.224Z,8.13
2019-04-26T10:16:02.623Z,8.20
2019-04-26T10:17:35.827Z,8.00
2019-04-26T10:19:16.435Z,7.83
2019-04-26T10:20:51.132Z,8.13
2019-04-26T10:22:28.448Z,8.00
2019-04-26T10:24:03.458Z,9.40
2019-04-26T10:25:38.245Z,8.50
2019-04-26T10:27:12.928Z,8.97
2019-04-26T10:28:50.603Z,8.17
2019-04-26T10:30:23.922Z,7.90
2019-04-26T10:31:58.695Z,7.60
2019-04-26T10:33:36.626Z,7.90
2019-04-26T10:35:09.893Z,8.17
2019-04-26T10:36:44.552Z,7.43
2019-04-26T10:38:23.294Z,7.40
2019-04-26T10:39:55.538Z,8.43
2019-04-26T10:41:30.196Z,8.27
2019-04-26T10:43:06.431Z,8.47
2019-04-26T10:44:41.236Z,8.67
2019-04-26T10:46:16.207Z,8.07
2019-04-26T10:47:50.925Z,7.67
2019-04-26T10:49:39.830Z,8.67
2019-04-26T10:51:16.804Z,8.87
2019-04-26T10:53:16.841Z,8.03
2019-04-26T10:54:59.830Z,7.70
2019-04-26T10:56:45.671Z,8.13
2019-04-26T10:58:37.779Z,7.43
2019-04-26T11:00:22.431Z,7.17
2019-04-26T11:01:57.207Z,7.43
2019-04-26T11:03:31.939Z,7.30
2019-04-26T11:05:06.901Z,6.63
2019-04-26T11:06:41.539Z,8.00
2019-04-26T11:08:16.282Z,11.40
2019-04-26T11:09:51.088Z,7.87
2019-04-26T11:11:25.799Z,11.63
2019-04-26T11:13:00.468Z,7.80
2019-04-26T11:14:35.206Z,8.57
2019-04-26T11:16:10.114Z,6.67
2019-04-26T11:17:46.053Z,6.17
2019-04-26T11:19:20.879Z,6.60
2019-04-26T11:20:56.510Z,6.20
2019-04-26T11:22:33.441Z,5.50
2019-04-26T11:24:07.557Z,5.40
2019-04-26T11:25:42.216Z,5.33
2019-04-26T11:27:16.870Z,4.43
2019-04-26T11:28:55.585Z,4.57
2019-04-26T11:30:27.951Z,6.57
2019-04-26T11:32:04.230Z,4.70
2019-04-26T11:33:44.717Z,7.67
2019-04-26T11:35:15.533Z,4.60
2019-04-26T11:36:50.249Z,4.63
2019-04-26T11:38:26.934Z,6.50
2019-04-26T11:40:01.351Z,5.73
2019-04-26T11:41:38.861Z,4.93
2019-04-26T11:43:15.865Z,4.70
2019-04-26T11:44:50.176Z,4.23
2019-04-26T11:46:29.231Z,4.33
2019-04-26T11:48:03.256Z,4.30
2019-04-26T11:49:43.606Z,2.97
2019-04-26T11:51:18.304Z,4.63
2019-04-26T11:52:52.943Z,2.87
2019-04-26T11:54:27.625Z,3.10
2019-04-26T11:56:04.498Z,2.80
2019-04-26T11:57:40.062Z,4.37
2019-04-26T11:59:48.525Z,3.10
2019-04-26T12:01:24.835Z,3.43
2019-04-26T12:02:59.628Z,2.57
2019-04-26T12:04:55.363Z,4.77
2019-04-26T12:06:41.252Z,2.50
2019-04-26T12:08:18.841Z,2.83
2019-04-26T12:09:55.171Z,2.30
2019-04-26T12:11:34.229Z,2.33
2019-04-26T12:13:06.573Z,1.50
2019-04-26T12:14:41.231Z,4.07
2019-04-26T12:16:18.650Z,1.90
2019-04-26T12:17:58.349Z,2.63
2019-04-26T12:19:28.610Z,2.40
2019-04-26T12:21:03.281Z,1.73
2019-04-26T12:22:39.290Z,3.57
2019-04-26T12:24:15.340Z,1.77
2019-04-26T12:25:49.986Z,2.67
2019-04-26T12:27:26.595Z,3.17
2019-04-26T12:29:01.011Z,3.07
2019-04-26T12:30:35.723Z,3.93
2019-04-26T12:32:10.448Z,2.53
2019-04-26T12:33:45.253Z,3.03
2019-04-26T12:35:19.939Z,2.60
2019-04-26T12:36:54.593Z,3.10
2019-04-26T12:38:30.112Z,5.53
2019-04-26T12:40:07.310Z,3.23
2019-04-26T12:41:42.551Z,2.87
2019-04-26T12:43:19.984Z,3.30
2019-04-26T12:45:24.860Z,3.60
2019-04-26T12:47:24.805Z,4.77
2019-04-26T12:48:59.492Z,3.73
2019-04-26T12:50:37.419Z,4.40
2019-04-26T12:52:10.484Z,3.60
2019-04-26T12:53:45.214Z,3.17
2019-04-26T12:55:20.263Z,3.00
2019-04-26T12:56:55.044Z,4.70
2019-04-26T12:58:29.685Z,3.27
2019-04-26T13:00:05.613Z,2.80
2019-04-26T13:01:42.561Z,4.07
2019-04-26T13:03:20.358Z,3.93
2019-04-26T13:04:54.631Z,3.97
2019-04-26T13:06:31.945Z,3.67
2019-04-26T13:08:05.868Z,3.37
2019-04-26T13:09:42.694Z,3.23
2019-04-26T13:11:35.262Z,2.73
2019-04-26T13:13:20.529Z,3.07
2019-04-26T13:15:08.206Z,3.57
2019-04-26T13:16:49.804Z,3.20
2019-04-26T13:20:50.385Z,3.03
2019-04-26T13:22:25.132Z,3.83
2019-04-26T13:24:00.228Z,4.13
2019-04-26T13:25:40.444Z,3.30
2019-04-26T13:27:12.489Z,3.90
2019-04-26T13:28:57.144Z,3.63
2019-04-26T13:30:32.936Z,2.90
2019-04-26T13:32:07.968Z,2.97
2019-04-26T13:33:42.686Z,4.37
2019-04-26T13:35:17.325Z,3.07
2019-04-26T13:36:51.948Z,3.23
2019-04-26T13:38:26.614Z,2.80
2019-04-26T13:40:01.258Z,2.80
2019-04-26T13:41:38.776Z,2.90
2019-04-26T13:43:14.206Z,2.47
2019-04-26T13:45:14.195Z,2.83
2019-04-26T13:47:03.783Z,2.80
2019-04-26T13:48:45.082Z,2.60
2019-04-26T13:50:30.539Z,3.33
2019-04-26T13:52:05.251Z,3.40
2019-04-26T13:53:39.913Z,3.07
2019-04-26T13:55:14.716Z,3.20
2019-04-26T13:56:49.369Z,3.10
2019-04-26T13:58:25.583Z,3.23
2019-04-26T14:00:02.609Z,2.70
2019-04-26T14:01:38.358Z,3.80
2019-04-26T14:03:13.101Z,6.93
2019-04-26T14:04:47.779Z,6.00
2019-04-26T14:06:22.892Z,4.30
2019-04-26T14:07:57.521Z,3.90
2019-04-26T14:09:32.157Z,4.00
2019-04-26T14:11:06.829Z,2.97
2019-04-26T14:12:41.464Z,3.43
2019-04-26T14:14:16.296Z,3.70
2019-04-26T14:15:52.127Z,3.33
2019-04-26T14:17:29.785Z,4.13
2019-04-26T14:19:03.323Z,3.87
2019-04-26T14:20:37.963Z,5.83
2019-04-26T14:22:15.376Z,4.20
2019-04-26T14:24:07.710Z,5.03
2019-04-26T14:26:01.180Z,5.40
2019-04-26T14:27:39.309Z,4.27
2019-04-26T14:29:13.990Z,3.37
2019-04-26T14:30:48.813Z,4.30
2019-04-26T14:32:24.298Z,5.73
2019-04-26T14:34:01.186Z,3.90
2019-04-26T14:35:35.355Z,4.50
2019-04-26T14:37:11.264Z,19.20
2019-04-26T14:38:46.510Z,5.40
2019-04-26T14:40:21.177Z,4.57
2019-04-26T14:41:56.975Z,4.17
2019-04-26T14:43:40.707Z,5.43
2019-04-26T14:45:08.881Z,4.30
2019-04-26T14:46:48.817Z,4.10
2019-04-26T14:48:22.338Z,4.23
2019-04-26T14:49:59.008Z,4.10
2019-04-26T14:51:33.942Z,4.27
2019-04-26T14:53:08.594Z,4.53
2019-04-26T14:54:46.011Z,4.43
2019-04-26T14:56:19.677Z,5.53
2019-04-26T14:57:54.403Z,4.90
2019-04-26T14:59:47.258Z,4.43
2019-04-26T15:01:39.804Z,4.40
2019-04-26T15:03:24.078Z,4.47
2019-04-26T15:05:14.436Z,4.20
2019-04-26T15:06:51.895Z,4.57
2019-04-26T15:08:25.507Z,5.70
2019-04-26T15:10:00.225Z,4.57
2019-04-26T15:11:36.160Z,5.17
2019-04-26T15:13:20.076Z,4.40
2019-04-26T15:14:49.417Z,9.17
2019-04-26T15:16:24.487Z,4.73
2019-04-26T15:18:02.873Z,5.83
2019-04-26T15:19:40.280Z,7.33
2019-04-26T15:21:13.984Z,12.87
2019-04-26T15:22:50.118Z,7.17
2019-04-26T15:24:25.973Z,5.20
2019-04-26T15:26:03.185Z,5.23
2019-04-26T15:27:37.987Z,5.90
2019-04-26T15:29:12.804Z,5.63
2019-04-26T15:30:47.458Z,6.67
2019-04-26T15:32:23.972Z,9.57
2019-04-26T15:33:58.472Z,6.83
2019-04-26T15:35:35.758Z,6.23
2019-04-26T15:37:09.536Z,6.57
2019-04-26T15:38:46.089Z,7.10
2019-04-26T15:40:49.778Z,6.00
2019-04-26T15:42:33.716Z,5.80
2019-04-26T15:44:28.377Z,6.13
2019-04-26T15:46:13.483Z,7.07
2019-04-26T15:48:06.105Z,10.37
2019-04-26T15:49:50.921Z,6.33
2019-04-26T15:51:27.604Z,8.57
2019-04-26T15:53:02.624Z,7.00
2019-04-26T15:54:37.508Z,7.23
2019-04-26T15:56:16.216Z,8.70
2019-04-26T15:57:48.560Z,7.97
2019-04-26T15:59:25.389Z,7.73
2019-04-26T16:01:00.291Z,6.50
2019-04-26T16:02:38.558Z,6.93
2019-04-26T16:04:17.318Z,9.97
2019-04-26T16:05:52.572Z,7.20
2019-04-26T16:07:29.040Z,8.20
2019-04-26T16:09:04.833Z,8.13
2019-04-26T16:10:41.119Z,8.00
2019-04-26T16:12:15.827Z,8.40
2019-04-26T16:13:54.215Z,7.13
2019-04-26T16:15:26.873Z,8.47
2019-04-26T16:17:03.257Z,8.00
2019-04-26T16:18:37.870Z,8.27
2019-04-26T16:20:13.803Z,9.13
2019-04-26T16:21:52.792Z,8.20
2019-04-26T16:23:38.167Z,10.53
2019-04-26T16:25:05.179Z,8.73
2019-04-26T16:26:44.592Z,7.90
2019-04-26T16:28:44.458Z,7.40
2019-04-26T16:30:44.546Z,7.80
2019-04-26T16:32:58.645Z,9.53
2019-04-26T16:34:29.928Z,7.00
2019-04-26T16:36:06.183Z,8.00
2019-04-26T16:37:40.979Z,9.50
2019-04-26T16:39:15.830Z,7.40
2019-04-26T16:40:53.448Z,7.83
2019-04-26T16:42:26.979Z,6.30
2019-04-26T16:44:02.751Z,17.23
2019-04-26T16:45:41.341Z,11.70
2019-04-26T16:47:14.008Z,6.80
2019-04-26T16:48:48.661Z,7.57
2019-04-26T16:50:31.180Z,7.60
2019-04-26T16:52:05.455Z,8.43
2019-04-26T16:55:19.622Z,8.43
2019-04-26T16:56:52.224Z,7.73
2019-04-26T16:58:30.875Z,7.20
2019-04-26T17:00:04.972Z,7.80
2019-04-26T17:00:32.162Z,7.23
2019-04-26T17:01:43.565Z,8.57
2019-04-26T17:03:17.508Z,7.97
2019-04-26T17:04:53.402Z,8.97
2019-04-26T17:06:28.171Z,8.03
2019-04-26T17:08:05.072Z,8.80
2019-04-26T17:09:55.853Z,8.77
2019-04-26T17:11:15.511Z,7.93
2019-04-26T17:12:50.976Z,8.70
2019-04-26T17:14:26.492Z,8.57
2019-04-26T17:16:02.261Z,9.70
2019-04-26T17:17:37.297Z,9.57
2019-04-26T17:19:13.664Z,10.17
2019-04-26T17:20:48.523Z,9.63
2019-04-26T17:22:44.587Z,9.23
2019-04-26T17:24:38.109Z,10.73
2019-04-26T17:26:33.576Z,10.63
2019-04-26T17:28:07.079Z,9.80
2019-04-26T17:29:42.340Z,10.77
2019-04-26T17:31:17.045Z,10.43
2019-04-26T17:32:53.527Z,10.43
2019-04-26T17:34:29.026Z,9.93
2019-04-26T17:36:04.462Z,10.20
2019-04-26T17:37:39.104Z,9.70
2019-04-26T17:39:17.350Z,11.13
2019-04-26T17:40:50.550Z,10.63
2019-04-26T17:42:30.333Z,9.57
2019-04-26T17:44:08.065Z,11.80
2019-04-26T17:45:42.503Z,10.67
2019-04-26T17:47:14.516Z,9.63
2019-04-26T17:48:50.641Z,11.33
2019-04-26T17:50:25.637Z,9.73
2019-04-26T17:52:01.941Z,9.80
2019-04-26T17:53:37.784Z,10.87
2019-04-26T17:55:14.897Z,9.83
2019-04-26T17:56:49.225Z,11.10
2019-04-26T17:58:30.889Z,10.40
2019-04-26T18:00:07.295Z,10.87
2019-04-26T18:01:45.239Z,10.73
2019-04-26T18:03:15.829Z,11.23
2019-04-26T18:04:58.919Z,10.43
2019-04-26T18:06:29.912Z,12.83
2019-04-26T18:08:30.499Z,10.67
2019-04-26T18:09:46.028Z,10.23
2019-04-26T18:11:20.061Z,10.00
2019-04-26T18:12:52.987Z,11.77
2019-04-26T18:14:30.480Z,11.37
2019-04-26T18:16:04.047Z,12.63
2019-04-26T18:18:14.356Z,11.60
2019-04-26T18:20:09.584Z,10.63
2019-04-26T18:22:06.145Z,9.93
2019-04-26T18:23:40.809Z,10.67
2019-04-26T18:25:15.493Z,14.60
2019-04-26T18:26:52.273Z,10.83
2019-04-26T18:28:26.527Z,11.67
2019-04-26T18:30:08.344Z,11.50
2019-04-26T18:31:38.740Z,11.27
2019-04-26T18:33:13.524Z,11.60
2019-04-26T18:34:48.158Z,13.00
2019-04-26T18:36:23.621Z,11.27
2019-04-26T18:37:58.352Z,12.27
2019-04-26T18:39:33.307Z,12.93
2019-04-26T18:41:08.055Z,13.10
2019-04-26T18:42:43.419Z,14.00
2019-04-26T18:44:18.291Z,12.80
2019-04-26T18:45:58.532Z,13.80
2019-04-26T18:47:35.494Z,12.03
2019-04-26T18:49:11.383Z,12.03
2019-04-26T18:50:46.691Z,12.87
2019-04-26T18:52:23.341Z,14.23
2019-04-26T18:54:17.954Z,13.97
2019-04-26T18:55:53.606Z,12.30
2019-04-26T18:57:28.274Z,14.40
2019-04-26T18:59:03.249Z,12.73
2019-04-26T19:00:39.253Z,13.60
2019-04-26T19:02:18.641Z,16.03
2019-04-26T19:03:51.647Z,13.30
2019-04-26T19:05:29.785Z,12.80
2019-04-26T19:07:02.848Z,13.63
2019-04-26T19:08:45.769Z,13.80
2019-04-26T19:10:14.333Z,12.97
2019-04-26T19:11:49.944Z,14.67
2019-04-26T19:13:42.388Z,17.10
2019-04-26T19:15:40.216Z,14.37
2019-04-26T19:17:43.869Z,17.03
2019-04-26T19:19:48.318Z,15.50
2019-04-26T19:21:52.686Z,15.77
2019-04-26T19:23:28.932Z,16.17
2019-04-26T19:25:03.397Z,14.83
2019-04-26T19:26:38.321Z,16.60
2019-04-26T19:28:13.142Z,16.97
2019-04-26T19:29:47.827Z,16.23
2019-04-26T19:31:23.945Z,15.47
2019-04-26T19:32:58.837Z,15.17
2019-04-26T19:34:33.580Z,16.90
2019-04-26T19:36:08.238Z,15.67
2019-04-26T19:37:44.616Z,16.37
2019-04-26T19:39:22.436Z,16.03
2019-04-26T19:40:55.862Z,15.97
2019-04-26T19:42:32.464Z,16.90
2019-04-26T19:44:07.320Z,17.07
2019-04-26T19:46:01.838Z,16.73
2019-04-26T19:47:48.457Z,16.43
2019-04-26T19:49:57.978Z,15.57
2019-04-26T19:51:49.257Z,15.20
2019-04-26T19:53:29.688Z,16.40
2019-04-26T19:55:22.576Z,17.30
2019-04-26T19:57:03.795Z,15.20
2019-04-26T19:58:38.044Z,13.30
2019-04-26T20:00:12.777Z,15.03
2019-04-26T20:01:47.545Z,14.50
2019-04-26T20:03:22.263Z,17.37
2019-04-26T20:04:56.912Z,14.23
2019-04-26T20:06:32.241Z,15.87
2019-04-26T20:08:08.041Z,15.23
2019-04-26T20:09:42.711Z,15.03
2019-04-26T20:11:19.986Z,16.73
2019-04-26T20:12:54.888Z,16.17
2019-04-26T20:14:43.538Z,18.93
2019-04-26T20:16:06.379Z,17.57
2019-04-26T20:17:41.117Z,21.37
2019-04-26T20:19:17.904Z,20.50
2019-04-26T20:20:55.434Z,19.70
2019-04-26T20:22:32.110Z,20.97
2019-04-26T20:24:06.891Z,21.03
2019-04-26T20:25:41.673Z,23.03
2019-04-26T20:27:20.563Z,20.83
2019-04-26T20:28:52.787Z,23.93
2019-04-26T20:30:49.474Z,23.77
2019-04-26T20:32:44.675Z,22.50
2019-04-26T20:34:19.534Z,25.33
2019-04-26T20:35:57.351Z,24.07
2019-04-26T20:37:32.161Z,23.90
2019-04-26T20:39:07.444Z,26.67
2019-04-26T20:40:47.393Z,26.63
2019-04-26T20:42:20.196Z,24.97
2019-04-26T20:44:05.149Z,25.47
2019-04-26T20:45:39.875Z,25.17
2019-04-26T20:47:18.017Z,27.10
2019-04-26T20:48:52.686Z,24.67
2019-04-26T20:50:28.618Z,25.37
2019-04-26T20:52:03.913Z,28.77
2019-04-26T20:53:41.210Z,27.53
2019-04-26T20:55:15.107Z,27.57
2019-04-26T20:56:55.172Z,30.80
2019-04-26T20:58:27.322Z,30.43
2019-04-26T21:00:05.293Z,31.17
2019-04-26T21:01:43.632Z,32.30
2019-04-26T21:03:23.891Z,30.93
2019-04-26T21:04:52.738Z,31.57
2019-04-26T21:06:29.266Z,31.23
2019-04-26T21:08:04.043Z,32.60
2019-04-26T21:09:40.874Z,29.77
2019-04-26T21:11:15.153Z,30.23
2019-04-26T21:12:52.204Z,32.67
2019-04-26T21:14:26.266Z,34.33
2019-04-26T21:16:03.495Z,31.43
2019-04-26T21:17:37.429Z,32.97
2019-04-26T21:19:12.800Z,32.70
2019-04-26T21:20:52.126Z,32.73
2019-04-26T21:22:28.738Z,36.37
2019-04-26T21:24:05.773Z,33.43
2019-04-26T21:25:56.126Z,32.20
2019-04-26T21:27:43.896Z,34.37
2019-04-26T21:29:43.557Z,35.53
2019-04-26T21:31:36.435Z,35.27
2019-04-26T21:33:35.812Z,36.67
2019-04-26T21:35:09.437Z,31.97
2019-04-26T21:36:58.855Z,37.63
2019-04-26T21:38:39.289Z,37.27
2019-04-26T21:40:26.146Z,35.33
2019-04-26T21:42:01.063Z,34.33
2019-04-26T21:43:38.360Z,34.03
2019-04-26T21:45:14.273Z,32.70
2019-04-26T21:46:49.585Z,36.10
2019-04-26T21:48:25.433Z,39.73
2019-04-26T21:50:00.778Z,37.40
2019-04-26T21:51:35.644Z,34.20
2019-04-26T21:53:10.458Z,36.33
2019-04-26T21:54:48.402Z,36.83
2019-04-26T21:56:23.333Z,35.73
2019-04-26T21:57:57.913Z,37.70
2019-04-26T21:59:40.617Z,35.77
2019-04-26T22:01:17.436Z,35.57
2019-04-26T22:02:50.187Z,39.17
2019-04-26T22:04:28.776Z,38.73
2019-04-26T22:06:04.152Z,35.87
2019-04-26T22:07:43.724Z,36.20
2019-04-26T22:09:28.417Z,34.60
2019-04-26T22:11:03.584Z,37.27
2019-04-26T22:12:38.450Z,38.90
2019-04-26T22:14:20.174Z,35.77
2019-04-26T22:16:07.856Z,40.27
2019-04-26T22:17:45.694Z,36.37
2019-04-26T22:19:39.501Z,36.00
2019-04-26T22:21:28.540Z,39.47
2019-04-26T22:23:25.362Z,39.33
2019-04-26T22:25:00.611Z,38.93
2019-04-26T22:26:37.982Z,37.70
2019-04-26T22:28:13.085Z,39.37
2019-04-26T22:29:51.769Z,40.50
2019-04-26T22:31:24.385Z,39.47
2019-04-26T22:32:59.089Z,38.73
2019-04-26T22:34:37.326Z,40.57
2019-04-26T22:36:10.165Z,39.90
2019-04-26T22:37:45.548Z,37.83
2019-04-26T22:39:22.791Z,36.20
2019-04-26T22:40:57.677Z,36.77